sensor_id;sensor_type;location;lat;lon;timestamp;pressure;altitude;pressure_sealevel;temperature;humidity
19236;BME280;9752;54.270;12.470;2023-09-19T00:02:56;100781.09;;;17.93;100.00
19236;BME280;9752;54.270;12.470;2023-09-19T00:07:59;100773.16;;;17.91;100.00
19236;BME280;9752;54.270;12.470;2023-09-19T00:13:03;100747.63;;;17.86;100.00
19236;BME280;9752;54.270;12.470;2023-09-19T00:18:06;100740.25;;;17.74;100.00
19236;BME280;9752;54.270;12.470;2023-09-19T00:23:09;100725.94;;;17.63;100.00
19236;BME280;9752;54.270;12.470;2023-09-19T00:28:12;100732.84;;;17.61;100.00
19236;BME280;9752;54.270;12.470;2023-09-19T00:33:15;100734.78;;;17.66;100.00
19236;BME280;9752;54.270;12.470;2023-09-19T00:38:17;100732.75;;;17.58;100.00
19236;BME280;9752;54.270;12.470;2023-09-19T00:43:23;100727.41;;;17.54;100.00
19236;BME280;9752;54.270;12.470;2023-09-19T00:48:25;100712.06;;;17.67;100.00
19236;BME280;9752;54.270;12.470;2023-09-19T00:53:30;100696.69;;;17.50;100.00
19236;BME280;9752;54.270;12.470;2023-09-19T00:58:34;100675.47;;;17.43;100.00
19236;BME280;9752;54.270;12.470;2023-09-19T01:03:36;100666.09;;;17.51;100.00
19236;BME280;9752;54.270;12.470;2023-09-19T01:08:38;100651.78;;;17.68;100.00
19236;BME280;9752;54.270;12.470;2023-09-19T01:13:50;100640.97;;;17.88;100.00
19236;BME280;9752;54.270;12.470;2023-09-19T01:19:06;100608.94;;;18.00;100.00
19236;BME280;9752;54.270;12.470;2023-09-19T01:24:44;100537.59;;;18.14;100.00
19236;BME280;9752;54.270;12.470;2023-09-19T01:30:06;100520.16;;;18.18;100.00
19236;BME280;9752;54.270;12.470;2023-09-19T01:35:09;100506.41;;;18.28;100.00
19236;BME280;9752;54.270;12.470;2023-09-19T01:40:16;100493.03;;;18.18;100.00
19236;BME280;9752;54.270;12.470;2023-09-19T01:45:26;100506.03;;;18.13;100.00
19236;BME280;9752;54.270;12.470;2023-09-19T01:50:34;100506.72;;;18.04;100.00
19236;BME280;9752;54.270;12.470;2023-09-19T01:55:43;100505.66;;;17.98;100.00
19236;BME280;9752;54.270;12.470;2023-09-19T02:00:51;100511.53;;;17.87;100.00
19236;BME280;9752;54.270;12.470;2023-09-19T02:05:54;100513.94;;;17.81;100.00
19236;BME280;9752;54.270;12.470;2023-09-19T02:10:56;100514.66;;;17.74;100.00
19236;BME280;9752;54.270;12.470;2023-09-19T02:15:59;100520.69;;;17.71;100.00
19236;BME280;9752;54.270;12.470;2023-09-19T02:21:01;100521.13;;;17.55;100.00
19236;BME280;9752;54.270;12.470;2023-09-19T02:26:04;100532.25;;;17.46;100.00
19236;BME280;9752;54.270;12.470;2023-09-19T02:31:07;100539.56;;;17.58;100.00
19236;BME280;9752;54.270;12.470;2023-09-19T02:36:09;100540.47;;;17.60;100.00
19236;BME280;9752;54.270;12.470;2023-09-19T02:41:11;100551.88;;;17.61;100.00
19236;BME280;9752;54.270;12.470;2023-09-19T02:46:14;100544.59;;;17.50;100.00
19236;BME280;9752;54.270;12.470;2023-09-19T02:51:17;100545.69;;;17.27;100.00
19236;BME280;9752;54.270;12.470;2023-09-19T02:56:19;100557.00;;;17.26;100.00
19236;BME280;9752;54.270;12.470;2023-09-19T03:01:22;100577.91;;;17.24;100.00
19236;BME280;9752;54.270;12.470;2023-09-19T03:06:24;100573.38;;;17.18;100.00
19236;BME280;9752;54.270;12.470;2023-09-19T03:11:26;100579.31;;;17.11;100.00
19236;BME280;9752;54.270;12.470;2023-09-19T03:16:33;100579.06;;;17.04;100.00
19236;BME280;9752;54.270;12.470;2023-09-19T03:21:35;100588.13;;;16.86;100.00
19236;BME280;9752;54.270;12.470;2023-09-19T03:26:37;100579.56;;;16.65;100.00
19236;BME280;9752;54.270;12.470;2023-09-19T03:31:41;100594.41;;;16.38;100.00
19236;BME280;9752;54.270;12.470;2023-09-19T03:36:43;100603.09;;;16.12;100.00
19236;BME280;9752;54.270;12.470;2023-09-19T03:41:45;100617.47;;;15.99;100.00
19236;BME280;9752;54.270;12.470;2023-09-19T03:46:48;100617.94;;;16.11;100.00
19236;BME280;9752;54.270;12.470;2023-09-19T03:51:51;100632.75;;;16.11;100.00
19236;BME280;9752;54.270;12.470;2023-09-19T03:56:52;100644.28;;;15.92;100.00
19236;BME280;9752;54.270;12.470;2023-09-19T04:01:55;100655.41;;;15.86;100.00
19236;BME280;9752;54.270;12.470;2023-09-19T04:06:58;100653.22;;;15.74;100.00
19236;BME280;9752;54.270;12.470;2023-09-19T04:12:01;100665.09;;;15.66;100.00
19236;BME280;9752;54.270;12.470;2023-09-19T04:17:05;100663.06;;;15.59;100.00
19236;BME280;9752;54.270;12.470;2023-09-19T04:22:07;100686.66;;;15.60;100.00
19236;BME280;9752;54.270;12.470;2023-09-19T04:27:09;100702.59;;;15.44;100.00
19236;BME280;9752;54.270;12.470;2023-09-19T04:32:14;100713.81;;;15.41;100.00
19236;BME280;9752;54.270;12.470;2023-09-19T04:37:17;100760.72;;;15.38;100.00
19236;BME280;9752;54.270;12.470;2023-09-19T04:42:19;100768.91;;;15.46;100.00
19236;BME280;9752;54.270;12.470;2023-09-19T04:47:23;100783.09;;;15.53;100.00
19236;BME280;9752;54.270;12.470;2023-09-19T04:52:25;100789.59;;;15.62;100.00
19236;BME280;9752;54.270;12.470;2023-09-19T04:57:26;100787.13;;;15.45;100.00
19236;BME280;9752;54.270;12.470;2023-09-19T05:02:30;100784.94;;;15.33;100.00
19236;BME280;9752;54.270;12.470;2023-09-19T05:07:32;100783.63;;;15.23;100.00
19236;BME280;9752;54.270;12.470;2023-09-19T05:12:34;100804.75;;;15.28;100.00
19236;BME280;9752;54.270;12.470;2023-09-19T05:17:37;100809.25;;;15.32;100.00
19236;BME280;9752;54.270;12.470;2023-09-19T05:22:39;100823.53;;;15.40;100.00
19236;BME280;9752;54.270;12.470;2023-09-19T05:27:41;100830.03;;;15.71;100.00
19236;BME280;9752;54.270;12.470;2023-09-19T05:32:44;100824.13;;;15.97;100.00
19236;BME280;9752;54.270;12.470;2023-09-19T05:37:46;100817.69;;;16.12;100.00
19236;BME280;9752;54.270;12.470;2023-09-19T05:42:47;100816.16;;;15.94;100.00
19236;BME280;9752;54.270;12.470;2023-09-19T05:47:52;100821.53;;;15.99;100.00
19236;BME280;9752;54.270;12.470;2023-09-19T05:52:56;100829.22;;;15.94;100.00
19236;BME280;9752;54.270;12.470;2023-09-19T05:57:58;100836.47;;;16.02;100.00
19236;BME280;9752;54.270;12.470;2023-09-19T06:03:01;100840.44;;;16.61;100.00
19236;BME280;9752;54.270;12.470;2023-09-19T06:08:04;100826.63;;;16.65;100.00
19236;BME280;9752;54.270;12.470;2023-09-19T06:13:08;100773.59;;;16.47;100.00
19236;BME280;9752;54.270;12.470;2023-09-19T06:18:12;100774.13;;;16.14;100.00
19236;BME280;9752;54.270;12.470;2023-09-19T06:23:20;100766.66;;;16.00;100.00
19236;BME280;9752;54.270;12.470;2023-09-19T06:28:23;100776.75;;;16.14;100.00
19236;BME280;9752;54.270;12.470;2023-09-19T06:33:27;100770.84;;;16.19;100.00
19236;BME280;9752;54.270;12.470;2023-09-19T06:38:28;100776.16;;;16.45;100.00
19236;BME280;9752;54.270;12.470;2023-09-19T06:43:30;100776.34;;;16.75;100.00
19236;BME280;9752;54.270;12.470;2023-09-19T06:48:35;100764.03;;;17.24;100.00
19236;BME280;9752;54.270;12.470;2023-09-19T06:53:37;100759.31;;;16.87;100.00
19236;BME280;9752;54.270;12.470;2023-09-19T06:58:40;100768.81;;;17.10;100.00
19236;BME280;9752;54.270;12.470;2023-09-19T07:03:45;100772.94;;;16.78;100.00
19236;BME280;9752;54.270;12.470;2023-09-19T07:08:47;100770.00;;;16.43;100.00
19236;BME280;9752;54.270;12.470;2023-09-19T07:13:50;100788.03;;;17.09;100.00
19236;BME280;9752;54.270;12.470;2023-09-19T07:18:53;100782.19;;;17.72;100.00
19236;BME280;9752;54.270;12.470;2023-09-19T07:23:56;100765.13;;;17.87;100.00
19236;BME280;9752;54.270;12.470;2023-09-19T07:28:58;100752.16;;;17.35;100.00
19236;BME280;9752;54.270;12.470;2023-09-19T07:34:01;100753.78;;;17.32;100.00
19236;BME280;9752;54.270;12.470;2023-09-19T07:39:05;100759.41;;;17.15;100.00
19236;BME280;9752;54.270;12.470;2023-09-19T07:44:07;100751.28;;;17.08;100.00
19236;BME280;9752;54.270;12.470;2023-09-19T07:49:11;100755.84;;;16.88;100.00
19236;BME280;9752;54.270;12.470;2023-09-19T07:54:13;100768.25;;;16.69;100.00
19236;BME280;9752;54.270;12.470;2023-09-19T07:59:15;100776.56;;;17.07;100.00
19236;BME280;9752;54.270;12.470;2023-09-19T08:04:18;100765.38;;;17.11;100.00
19236;BME280;9752;54.270;12.470;2023-09-19T08:09:20;100767.34;;;17.18;100.00
19236;BME280;9752;54.270;12.470;2023-09-19T08:14:21;100776.63;;;17.90;100.00
19236;BME280;9752;54.270;12.470;2023-09-19T08:19:26;100771.31;;;18.19;100.00
19236;BME280;9752;54.270;12.470;2023-09-19T08:24:29;100771.31;;;18.19;100.00
19236;BME280;9752;54.270;12.470;2023-09-19T08:29:31;100770.41;;;18.17;100.00
19236;BME280;9752;54.270;12.470;2023-09-19T08:34:34;100774.47;;;17.50;100.00
19236;BME280;9752;54.270;12.470;2023-09-19T08:39:38;100768.25;;;18.02;100.00
19236;BME280;9752;54.270;12.470;2023-09-19T08:44:40;100767.41;;;18.35;100.00
19236;BME280;9752;54.270;12.470;2023-09-19T08:49:53;100785.59;;;18.27;100.00
19236;BME280;9752;54.270;12.470;2023-09-19T08:55:01;100782.75;;;18.20;100.00
19236;BME280;9752;54.270;12.470;2023-09-19T09:00:06;100780.38;;;17.71;100.00
19236;BME280;9752;54.270;12.470;2023-09-19T09:05:12;100787.94;;;17.33;100.00
19236;BME280;9752;54.270;12.470;2023-09-19T09:10:14;100778.84;;;17.49;100.00
19236;BME280;9752;54.270;12.470;2023-09-19T09:15:17;100798.66;;;17.41;100.00
19236;BME280;9752;54.270;12.470;2023-09-19T09:20:23;100808.50;;;17.48;100.00
19236;BME280;9752;54.270;12.470;2023-09-19T09:25:46;100800.22;;;17.90;100.00
19236;BME280;9752;54.270;12.470;2023-09-19T09:30:49;100792.44;;;18.22;100.00
19236;BME280;9752;54.270;12.470;2023-09-19T09:35:54;100797.78;;;18.25;100.00
19236;BME280;9752;54.270;12.470;2023-09-19T09:40:57;100790.34;;;18.41;100.00
19236;BME280;9752;54.270;12.470;2023-09-19T09:46:08;100815.78;;;18.43;100.00
19236;BME280;9752;54.270;12.470;2023-09-19T09:51:32;100789.25;;;18.34;100.00
19236;BME280;9752;54.270;12.470;2023-09-19T09:56:34;100792.69;;;18.31;100.00
19236;BME280;9752;54.270;12.470;2023-09-19T10:01:46;100805.34;;;18.14;100.00
19236;BME280;9752;54.270;12.470;2023-09-19T10:06:51;100806.78;;;18.65;100.00
19236;BME280;9752;54.270;12.470;2023-09-19T10:12:06;100809.25;;;18.59;100.00
19236;BME280;9752;54.270;12.470;2023-09-19T10:17:10;100816.34;;;18.95;100.00
19236;BME280;9752;54.270;12.470;2023-09-19T10:22:14;100822.59;;;18.67;100.00
19236;BME280;9752;54.270;12.470;2023-09-19T10:27:17;100825.78;;;18.87;100.00
19236;BME280;9752;54.270;12.470;2023-09-19T10:32:21;100829.88;;;18.77;100.00
19236;BME280;9752;54.270;12.470;2023-09-19T10:37:26;100834.56;;;18.57;100.00
19236;BME280;9752;54.270;12.470;2023-09-19T10:42:30;100831.13;;;17.99;100.00
19236;BME280;9752;54.270;12.470;2023-09-19T10:47:33;100818.91;;;18.60;100.00
19236;BME280;9752;54.270;12.470;2023-09-19T10:52:41;100809.69;;;18.76;100.00
19236;BME280;9752;54.270;12.470;2023-09-19T10:57:44;100833.41;;;18.46;100.00
19236;BME280;9752;54.270;12.470;2023-09-19T11:03:17;100827.38;;;18.20;100.00
19236;BME280;9752;54.270;12.470;2023-09-19T11:08:21;100834.56;;;18.57;100.00
19236;BME280;9752;54.270;12.470;2023-09-19T11:13:24;100832.16;;;18.97;100.00
19236;BME280;9752;54.270;12.470;2023-09-19T11:18:57;100838.75;;;18.81;100.00
19236;BME280;9752;54.270;12.470;2023-09-19T11:24:32;100837.44;;;18.65;100.00
19236;BME280;9752;54.270;12.470;2023-09-19T11:29:36;100848.38;;;18.50;100.00
19236;BME280;9752;54.270;12.470;2023-09-19T11:34:41;100848.16;;;18.72;100.00
19236;BME280;9752;54.270;12.470;2023-09-19T11:40:05;100838.88;;;18.84;100.00
19236;BME280;9752;54.270;12.470;2023-09-19T11:50:46;100832.59;;;19.83;100.00
19236;BME280;9752;54.270;12.470;2023-09-19T11:55:51;100831.53;;;19.75;100.00
19236;BME280;9752;54.270;12.470;2023-09-19T12:00:54;100834.19;;;19.75;100.00
19236;BME280;9752;54.270;12.470;2023-09-19T12:05:58;100836.56;;;19.66;100.00
19236;BME280;9752;54.270;12.470;2023-09-19T12:11:01;100831.72;;;19.83;100.00
19236;BME280;9752;54.270;12.470;2023-09-19T12:16:11;100831.81;;;20.27;100.00
19236;BME280;9752;54.270;12.470;2023-09-19T12:21:25;100823.00;;;19.85;100.00
19236;BME280;9752;54.270;12.470;2023-09-19T12:26:28;100824.59;;;19.79;100.00
19236;BME280;9752;54.270;12.470;2023-09-19T12:31:30;100830.31;;;19.26;100.00
19236;BME280;9752;54.270;12.470;2023-09-19T12:36:36;100836.31;;;19.57;100.00
19236;BME280;9752;54.270;12.470;2023-09-19T12:41:41;100833.63;;;19.19;100.00
19236;BME280;9752;54.270;12.470;2023-09-19T12:46:42;100832.63;;;19.50;100.00
19236;BME280;9752;54.270;12.470;2023-09-19T12:51:46;100831.25;;;19.64;100.00
19236;BME280;9752;54.270;12.470;2023-09-19T12:56:49;100825.63;;;19.85;100.00
19236;BME280;9752;54.270;12.470;2023-09-19T13:02:03;100835.19;;;19.82;100.00
19236;BME280;9752;54.270;12.470;2023-09-19T13:07:06;100820.72;;;19.28;100.00
19236;BME280;9752;54.270;12.470;2023-09-19T13:12:37;100817.31;;;19.68;100.00
19236;BME280;9752;54.270;12.470;2023-09-19T13:17:44;100820.34;;;19.85;100.00
19236;BME280;9752;54.270;12.470;2023-09-19T13:22:46;100821.31;;;19.53;100.00
19236;BME280;9752;54.270;12.470;2023-09-19T13:27:52;100817.09;;;19.96;100.00
19236;BME280;9752;54.270;12.470;2023-09-19T13:33:04;100809.44;;;20.08;100.00
19236;BME280;9752;54.270;12.470;2023-09-19T13:38:07;100813.22;;;19.80;100.00
19236;BME280;9752;54.270;12.470;2023-09-19T13:43:12;100807.44;;;19.58;100.00
19236;BME280;9752;54.270;12.470;2023-09-19T13:48:14;100816.19;;;19.59;100.00
19236;BME280;9752;54.270;12.470;2023-09-19T13:53:16;100810.16;;;20.01;100.00
19236;BME280;9752;54.270;12.470;2023-09-19T13:58:19;100818.03;;;19.98;100.00
19236;BME280;9752;54.270;12.470;2023-09-19T14:03:23;100799.16;;;19.79;100.00
19236;BME280;9752;54.270;12.470;2023-09-19T14:08:24;100802.75;;;19.83;100.00
19236;BME280;9752;54.270;12.470;2023-09-19T14:13:27;100802.31;;;19.64;100.00
19236;BME280;9752;54.270;12.470;2023-09-19T14:18:29;100803.72;;;19.86;100.00
19236;BME280;9752;54.270;12.470;2023-09-19T14:23:34;100789.34;;;19.72;100.00
19236;BME280;9752;54.270;12.470;2023-09-19T14:28:37;100793.78;;;19.73;100.00
19236;BME280;9752;54.270;12.470;2023-09-19T14:33:40;100786.81;;;19.75;100.00
19236;BME280;9752;54.270;12.470;2023-09-19T14:38:42;100791.16;;;19.75;100.00
19236;BME280;9752;54.270;12.470;2023-09-19T14:43:46;100797.66;;;19.91;100.00
19236;BME280;9752;54.270;12.470;2023-09-19T14:48:47;100788.63;;;19.79;100.00
19236;BME280;9752;54.270;12.470;2023-09-19T14:53:49;100792.06;;;20.16;100.00
19236;BME280;9752;54.270;12.470;2023-09-19T14:58:52;100788.00;;;21.25;100.00
19236;BME280;9752;54.270;12.470;2023-09-19T15:03:53;100758.72;;;22.32;100.00
19236;BME280;9752;54.270;12.470;2023-09-19T15:08:55;100763.50;;;21.93;100.00
19236;BME280;9752;54.270;12.470;2023-09-19T15:13:59;100765.91;;;21.20;100.00
19236;BME280;9752;54.270;12.470;2023-09-19T15:19:03;100766.06;;;21.89;100.00
19236;BME280;9752;54.270;12.470;2023-09-19T15:24:06;100750.28;;;22.68;100.00
19236;BME280;9752;54.270;12.470;2023-09-19T15:29:11;100748.53;;;22.69;100.00
19236;BME280;9752;54.270;12.470;2023-09-19T15:34:14;100727.59;;;22.93;100.00
19236;BME280;9752;54.270;12.470;2023-09-19T15:39:16;100722.13;;;22.72;100.00
19236;BME280;9752;54.270;12.470;2023-09-19T15:44:20;100723.38;;;21.55;100.00
19236;BME280;9752;54.270;12.470;2023-09-19T15:49:21;100739.13;;;20.48;100.00
19236;BME280;9752;54.270;12.470;2023-09-19T15:54:25;100732.06;;;20.93;100.00
19236;BME280;9752;54.270;12.470;2023-09-19T15:59:29;100753.34;;;19.71;100.00
19236;BME280;9752;54.270;12.470;2023-09-19T16:04:31;100762.72;;;19.22;100.00
19236;BME280;9752;54.270;12.470;2023-09-19T16:09:33;100750.53;;;18.59;100.00
19236;BME280;9752;54.270;12.470;2023-09-19T16:14:37;100770.63;;;18.25;100.00
19236;BME280;9752;54.270;12.470;2023-09-19T16:19:39;100758.78;;;18.09;100.00
19236;BME280;9752;54.270;12.470;2023-09-19T16:24:40;100762.56;;;18.19;100.00
19236;BME280;9752;54.270;12.470;2023-09-19T16:29:43;100742.84;;;18.98;100.00
19236;BME280;9752;54.270;12.470;2023-09-19T16:34:45;100742.34;;;18.46;100.00
19236;BME280;9752;54.270;12.470;2023-09-19T16:39:47;100755.72;;;18.24;100.00
19236;BME280;9752;54.270;12.470;2023-09-19T16:44:50;100753.38;;;17.74;100.00
19236;BME280;9752;54.270;12.470;2023-09-19T16:49:51;100747.56;;;17.55;100.00
19236;BME280;9752;54.270;12.470;2023-09-19T16:54:53;100741.66;;;17.34;100.00
19236;BME280;9752;54.270;12.470;2023-09-19T16:59:56;100744.97;;;17.30;100.00
19236;BME280;9752;54.270;12.470;2023-09-19T17:04:58;100740.78;;;17.35;100.00
19236;BME280;9752;54.270;12.470;2023-09-19T17:10:00;100732.16;;;17.39;100.00
19236;BME280;9752;54.270;12.470;2023-09-19T17:15:04;100731.06;;;17.31;100.00
19236;BME280;9752;54.270;12.470;2023-09-19T17:20:06;100724.00;;;17.30;100.00
19236;BME280;9752;54.270;12.470;2023-09-19T17:25:08;100728.44;;;17.31;100.00
19236;BME280;9752;54.270;12.470;2023-09-19T17:30:12;100743.22;;;17.29;100.00
19236;BME280;9752;54.270;12.470;2023-09-19T17:35:15;100729.25;;;17.30;100.00
19236;BME280;9752;54.270;12.470;2023-09-19T17:40:18;100735.53;;;17.35;100.00
19236;BME280;9752;54.270;12.470;2023-09-19T17:45:21;100739.97;;;17.36;100.00
19236;BME280;9752;54.270;12.470;2023-09-19T17:50:23;100738.34;;;17.40;100.00
19236;BME280;9752;54.270;12.470;2023-09-19T17:55:24;100742.81;;;17.44;100.00
19236;BME280;9752;54.270;12.470;2023-09-19T18:00:27;100742.72;;;17.41;100.00
19236;BME280;9752;54.270;12.470;2023-09-19T18:05:29;100743.59;;;17.41;100.00
19236;BME280;9752;54.270;12.470;2023-09-19T18:10:30;100745.44;;;17.44;100.00
19236;BME280;9752;54.270;12.470;2023-09-19T18:15:35;100727.84;;;17.40;100.00
19236;BME280;9752;54.270;12.470;2023-09-19T18:20:38;100725.34;;;17.44;100.00
19236;BME280;9752;54.270;12.470;2023-09-19T18:25:41;100733.22;;;17.44;100.00
19236;BME280;9752;54.270;12.470;2023-09-19T18:30:44;100733.09;;;17.41;100.00
19236;BME280;9752;54.270;12.470;2023-09-19T18:35:47;100727.38;;;17.26;100.00
19236;BME280;9752;54.270;12.470;2023-09-19T18:40:49;100733.31;;;17.20;100.00
19236;BME280;9752;54.270;12.470;2023-09-19T18:45:58;100734.69;;;17.09;100.00
19236;BME280;9752;54.270;12.470;2023-09-19T18:51:04;100729.69;;;17.15;100.00
19236;BME280;9752;54.270;12.470;2023-09-19T18:56:08;100730.59;;;16.90;100.00
19236;BME280;9752;54.270;12.470;2023-09-19T19:01:11;100719.91;;;16.84;100.00
19236;BME280;9752;54.270;12.470;2023-09-19T19:06:16;100728.53;;;16.81;100.00
19236;BME280;9752;54.270;12.470;2023-09-19T19:11:17;100726.19;;;16.89;100.00
19236;BME280;9752;54.270;12.470;2023-09-19T19:16:23;100724.06;;;16.78;100.00
19236;BME280;9752;54.270;12.470;2023-09-19T19:21:26;100710.56;;;16.66;100.00
19236;BME280;9752;54.270;12.470;2023-09-19T19:26:28;100704.78;;;16.76;100.00
19236;BME280;9752;54.270;12.470;2023-09-19T19:31:33;100713.38;;;16.72;100.00
19236;BME280;9752;54.270;12.470;2023-09-19T19:36:37;100709.28;;;16.81;100.00
19236;BME280;9752;54.270;12.470;2023-09-19T19:41:39;100707.88;;;16.89;100.00
19236;BME280;9752;54.270;12.470;2023-09-19T19:46:42;100717.72;;;16.96;100.00
19236;BME280;9752;54.270;12.470;2023-09-19T19:51:44;100711.06;;;17.07;100.00
19236;BME280;9752;54.270;12.470;2023-09-19T19:56:47;100701.56;;;17.11;100.00
19236;BME280;9752;54.270;12.470;2023-09-19T20:01:50;100710.59;;;17.19;100.00
19236;BME280;9752;54.270;12.470;2023-09-19T20:06:51;100702.09;;;17.28;100.00
19236;BME280;9752;54.270;12.470;2023-09-19T20:11:53;100696.38;;;17.40;100.00
19236;BME280;9752;54.270;12.470;2023-09-19T20:16:57;100698.56;;;17.54;100.00
19236;BME280;9752;54.270;12.470;2023-09-19T20:22:00;100710.25;;;17.64;100.00
19236;BME280;9752;54.270;12.470;2023-09-19T20:27:02;100710.41;;;17.70;100.00
19236;BME280;9752;54.270;12.470;2023-09-19T20:32:08;100713.88;;;17.69;100.00
19236;BME280;9752;54.270;12.470;2023-09-19T20:37:11;100721.09;;;17.76;100.00
19236;BME280;9752;54.270;12.470;2023-09-19T20:42:12;100713.09;;;17.73;100.00
19236;BME280;9752;54.270;12.470;2023-09-19T20:47:15;100706.22;;;17.77;100.00
19236;BME280;9752;54.270;12.470;2023-09-19T20:52:17;100711.56;;;17.80;100.00
19236;BME280;9752;54.270;12.470;2023-09-19T20:57:19;100709.78;;;17.79;100.00
19236;BME280;9752;54.270;12.470;2023-09-19T21:02:22;100707.31;;;17.84;100.00
19236;BME280;9752;54.270;12.470;2023-09-19T21:07:25;100712.63;;;17.85;100.00
19236;BME280;9752;54.270;12.470;2023-09-19T21:12:29;100713.38;;;17.83;100.00
19236;BME280;9752;54.270;12.470;2023-09-19T21:17:32;100715.97;;;17.81;100.00
19236;BME280;9752;54.270;12.470;2023-09-19T21:22:34;100709.88;;;17.82;100.00
19236;BME280;9752;54.270;12.470;2023-09-19T21:27:36;100717.19;;;17.92;100.00
19236;BME280;9752;54.270;12.470;2023-09-19T21:32:39;100715.38;;;17.90;100.00
19236;BME280;9752;54.270;12.470;2023-09-19T21:37:40;100718.09;;;17.93;100.00
19236;BME280;9752;54.270;12.470;2023-09-19T21:42:42;100718.94;;;17.92;100.00
19236;BME280;9752;54.270;12.470;2023-09-19T21:47:45;100721.72;;;17.97;100.00
19236;BME280;9752;54.270;12.470;2023-09-19T21:52:47;100718.28;;;17.99;100.00
19236;BME280;9752;54.270;12.470;2023-09-19T21:57:49;100721.66;;;17.95;100.00
19236;BME280;9752;54.270;12.470;2023-09-19T22:02:51;100721.72;;;17.98;100.00
19236;BME280;9752;54.270;12.470;2023-09-19T22:07:55;100717.41;;;18.00;100.00
19236;BME280;9752;54.270;12.470;2023-09-19T22:12:57;100714.72;;;17.97;100.00
19236;BME280;9752;54.270;12.470;2023-09-19T22:18:01;100722.50;;;17.94;100.00
19236;BME280;9752;54.270;12.470;2023-09-19T22:23:05;100717.13;;;17.89;100.00
19236;BME280;9752;54.270;12.470;2023-09-19T22:28:13;100715.50;;;17.94;100.00
19236;BME280;9752;54.270;12.470;2023-09-19T22:33:17;100712.03;;;17.95;100.00
19236;BME280;9752;54.270;12.470;2023-09-19T22:38:19;100716.47;;;17.97;100.00
19236;BME280;9752;54.270;12.470;2023-09-19T22:43:21;100714.78;;;18.00;100.00
19236;BME280;9752;54.270;12.470;2023-09-19T22:48:28;100712.94;;;17.96;100.00
19236;BME280;9752;54.270;12.470;2023-09-19T22:53:30;100718.19;;;17.96;100.00
19236;BME280;9752;54.270;12.470;2023-09-19T22:58:37;100720.84;;;17.98;100.00
19236;BME280;9752;54.270;12.470;2023-09-19T23:03:42;100718.28;;;17.99;100.00
19236;BME280;9752;54.270;12.470;2023-09-19T23:08:46;100720.72;;;17.93;100.00
19236;BME280;9752;54.270;12.470;2023-09-19T23:13:49;100727.84;;;17.68;100.00
19236;BME280;9752;54.270;12.470;2023-09-19T23:18:54;100744.47;;;17.40;100.00
19236;BME280;9752;54.270;12.470;2023-09-19T23:23:57;100760.44;;;17.21;100.00
19236;BME280;9752;54.270;12.470;2023-09-19T23:28:59;100760.72;;;17.03;100.00
19236;BME280;9752;54.270;12.470;2023-09-19T23:34:05;100764.88;;;16.96;100.00
19236;BME280;9752;54.270;12.470;2023-09-19T23:39:07;100771.69;;;16.91;100.00
19236;BME280;9752;54.270;12.470;2023-09-19T23:44:13;100781.34;;;16.69;100.00
19236;BME280;9752;54.270;12.470;2023-09-19T23:49:16;100785.44;;;16.61;100.00
19236;BME280;9752;54.270;12.470;2023-09-19T23:54:19;100795.66;;;16.53;100.00
19236;BME280;9752;54.270;12.470;2023-09-19T23:59:27;100804.91;;;16.44;100.00
